Terminal Aerodrome Forecast
Issued by NWS

Home | Current Version | Previous Version | Text Only | Print | Product List | Glossary On
Versions: 1 2 3 4 5 6 7 8 9 10 11 12 13 14 15 16 17 18
000
FTUS44 KLZK 161100
TAFHOT
TAF
KHOT 161120Z 1612/1712 10004KT P6SM FEW250
     FM161500 16006KT P6SM FEW250
     FM161800 17008G16KT P6SM FEW250
     FM170100 12003KT P6SM SKC=

USA.gov is the U.S. government's official web portal to all federal, state and local government web resources and services.